Прохоровка

Карта отелей и гостиниц, располагающихся рядом с аэропортом Прохоровка :



Прохоровка Белгородская область 51° 3' 1.98" N, 36° 46' 8.4612" E
Код аэродрома ИКАО: 
H624
Код аэродрома RU: 
Х624
Координаты: 
N51.05055° E036.76902°
Превышение над уровнем моря : 
241
Основная полоса: 
Курс магнитный: 
Длина основной ВПП: 
Ширина основной ВПП: 
Покрытие основной ВПП: 
Тип: 
Вертодром
Освещение ВПП: 
Класс аэродрома: 
Статус: 
Недействующий
Принадлежность: 
ГА
Сайт: 
E-mail аэродрома: 
Страна: 
Россия
Регион: 
Белгородская область
Город: 
Дополнительная информация: 

Найти трансфер

С помощью этой формы Вы можете найти трансфер из аэропорта Прохоровка в город, аэропорт или вокзал:

Карта места

Javascript is required to view this map.

Погода в аэропортах:

Авиационная погода в Нижнем Новгороде

Регион: 
Погода METAR: 
UWGG 042000Z 20002MPS 1900 0800NE R18L/1700U FG FEW033 13/13 Q1009 R18L/190060 TEMPO 0300 FG VV003
Время наблюдения: 
2020-06-04T20:00:00Z
Температура C: 
13.0
Точка росы: 
13.0
Направление ветра: 
200
Скорость ветра: 
4
Метеорологическая видимость: 
1.18
Явления погоды: 
FG
Условия полета: 
IFR

Авиационная погода в Витебске

Регион: 
Погода METAR: 
UMII 041400Z 29003MPS 7000 -SHRA BKN017CB 15/14 Q1002 TEMPO 2000 TSRA BKN005
Время наблюдения: 
2020-06-04T14:00:00Z
Температура C: 
15.0
Точка росы: 
14.0
Направление ветра: 
290
Скорость ветра: 
6
Метеорологическая видимость: 
4.35
Явления погоды: 
-SHRA
Условия полета: 
MVFR

Авиационная погода в Ульяновске

Регион: 
Погода METAR: 
UWLW 042000Z 17002MPS 2200 BR NSC 14/14 Q1013 R20/290250 TEMPO 0300 FG VV002 RMK QFE754
Время наблюдения: 
2020-06-04T20:00:00Z
Температура C: 
14.0
Точка росы: 
14.0
Направление ветра: 
170
Скорость ветра: 
4
Метеорологическая видимость: 
1.37
Явления погоды: 
BR
Условия полета: 
IFR

Авиационная погода в Куопио

Регион: 
Погода METAR: 
EFKU 041950Z AUTO 03006KT 330V090 9999 -SHRA NSC 13/09 Q1004
Время наблюдения: 
2020-06-04T19:50:00Z
Температура C: 
13.0
Точка росы: 
9.0
Направление ветра: 
30
Скорость ветра: 
6
Метеорологическая видимость: 
6.21
Явления погоды: 
-SHRA
Условия полета: 
VFR